Time;durP1;ratioP1;P1;durP2;ratioP2;P2;SDS_P1;SDS_P2;PMS_P1;PMS_P2;Temp;Humidity;BMP_temperature;BMP_pressure;BME280_temperature;BME280_humidity;BME280_pressure;Samples;Min_cycle;Max_cycle;Signal;HPM_P1;HPM_P2
2022/10/11 00:01:44;;;;;;;;;;;;;;;9.94;94.41;100978.34;1473609;88;20893;-80
2022/10/11 00:04:11;;;;;;;;;;;;;;;9.94;94.32;100981.82;1478760;88;20487;-79
2022/10/11 00:06:38;;;;;;;;;;;;;;;9.94;93.92;100977.85;1471417;88;20354;-80
2022/10/11 00:09:05;;;;;;;;;;;;;;;9.97;94.03;100975.92;1474529;88;20228;-79
2022/10/11 00:11:33;;;;;;;;;;;;;;;9.90;94.41;100969.84;1487249;88;20923;-79
2022/10/11 00:13:59;;;;;;;;;;;;;;;9.90;93.52;100969.84;1476844;88;20396;-80
2022/10/11 00:16:26;;;;;;;;;;;;;;;9.88;95.03;100965.16;1482252;88;20372;-79
2022/10/11 00:18:53;;;;;;;;;;;;;;;9.84;94.68;100980.94;1463735;88;20381;-79
2022/10/11 00:21:20;;;;;;;;;;;;;;;9.80;94.61;100966.28;1486326;88;20351;-79
2022/10/11 00:23:48;;;;;;;;;;;;;;;9.81;94.35;100971.95;1462059;88;20815;-80
2022/10/11 00:26:15;;;;;;;;;;;;;;;9.80;95.10;100970.73;1477241;88;20386;-79
2022/10/11 00:28:42;;;;;;;;;;;;;;;9.75;95.73;100971.11;1461215;88;20345;-79
2022/10/11 00:31:11;;;;;;;;;;;;;;;9.71;95.49;100970.54;1460810;88;20298;-79
2022/10/11 00:33:38;;;;;;;;;;;;;;;9.72;94.68;100972.70;1484247;87;20254;-79
2022/10/11 00:36:06;;;;;;;;;;;;;;;9.70;95.42;100972.01;1473041;88;20289;-79
2022/10/11 00:38:33;;;;;;;;;;;;;;;9.71;94.18;100969.70;1485129;88;20826;-79
2022/10/11 00:41:00;;;;;;;;;;;;;;;9.73;94.69;100961.66;1489935;88;20276;-78
2022/10/11 00:43:30;;;;;;;;;;;;;;;9.70;94.96;100964.91;1485907;88;20254;-79
2022/10/11 00:46:00;;;;;;;;;;;;;;;9.63;95.70;100959.77;1483315;88;20238;-78
2022/10/11 00:48:49;;;;;;;;;;;;;;;9.60;95.93;100955.23;1479160;88;20261;-79
2022/10/11 00:51:25;;;;;;;;;;;;;;;9.59;94.83;100953.08;1465551;88;20312;-79
2022/10/11 00:53:52;;;;;;;;;;;;;;;9.60;94.54;100945.49;1481597;88;20319;-79
2022/10/11 00:56:23;;;;;;;;;;;;;;;9.65;94.56;100943.80;1488361;88;20231;-80
2022/10/11 00:58:50;;;;;;;;;;;;;;;9.68;94.89;100943.53;1470988;88;20269;-79
2022/10/11 01:01:17;;;;;;;;;;;;;;;9.69;94.77;100938.59;1468910;88;20268;-80
2022/10/11 01:03:45;;;;;;;;;;;;;;;9.72;94.68;100939.66;1447223;89;20269;-80
2022/10/11 01:06:11;;;;;;;;;;;;;;;9.72;95.89;100942.30;1475622;88;20445;-80
2022/10/11 01:08:38;;;;;;;;;;;;;;;9.71;95.93;100936.18;1479581;88;20796;-80
2022/10/11 01:11:05;;;;;;;;;;;;;;;9.74;95.66;100939.54;1450385;88;20330;-80
2022/10/11 01:13:36;;;;;;;;;;;;;;;9.78;95.63;100937.84;1413663;92;20282;-80
2022/10/11 01:16:39;;;;;;;;;;;;;;;9.76;96.29;100942.41;1465367;88;20307;-80
2022/10/11 01:19:15;;;;;;;;;;;;;;;9.79;95.80;100940.83;1461094;89;20256;-80
2022/10/11 01:21:58;;;;;;;;;;;;;;;9.87;95.62;100937.55;1467069;88;20350;-79
2022/10/11 01:24:44;;;;;;;;;;;;;;;9.94;95.43;100932.07;1469230;88;20411;-80
2022/10/11 01:27:35;;;;;;;;;;;;;;;9.97;96.34;100933.62;1476258;88;20305;-80
2022/10/11 01:30:21;;;;;;;;;;;;;;;9.97;96.12;100930.97;1466977;88;20811;-81
2022/10/11 01:33:08;;;;;;;;;;;;;;;9.98;95.44;100931.31;1463581;88;20805;-79
2022/10/11 01:35:54;;;;;;;;;;;;;;;9.96;96.11;100937.24;1466237;88;20433;-79
2022/10/11 01:38:24;;;;;;;;;;;;;;;9.88;95.87;100932.11;1468932;88;21129;-78
2022/10/11 01:41:07;;;;;;;;;;;;;;;9.79;95.16;100938.19;1486440;88;20297;-80
2022/10/11 01:43:36;;;;;;;;;;;;;;;9.79;94.97;100930.75;1458680;88;20804;-80
2022/10/11 01:46:04;;;;;;;;;;;;;;;9.80;94.88;100929.27;1473520;88;20401;-80
2022/10/11 01:48:31;;;;;;;;;;;;;;;9.84;94.58;100932.48;1452268;89;20404;-80
2022/10/11 01:51:00;;;;;;;;;;;;;;;9.86;94.92;100923.46;1415708;91;20324;-80
2022/10/11 01:53:52;;;;;;;;;;;;;;;9.84;95.58;100918.81;1486488;88;20268;-79
2022/10/11 01:56:47;;;;;;;;;;;;;;;9.81;95.54;100919.08;1462820;88;20791;-80
2022/10/11 01:59:40;;;;;;;;;;;;;;;9.77;96.30;100922.09;1474437;88;20262;-80
2022/10/11 02:02:32;;;;;;;;;;;;;;;9.78;95.19;100927.27;1462582;88;20234;-79
2022/10/11 02:05:21;;;;;;;;;;;;;;;9.81;95.15;100922.17;1485355;88;21107;-79
2022/10/11 02:07:57;;;;;;;;;;;;;;;9.85;95.09;100919.16;1477730;88;20379;-79
2022/10/11 02:10:33;;;;;;;;;;;;;;;9.89;95.16;100915.27;1481656;88;20335;-80
2022/10/11 02:13:04;;;;;;;;;;;;;;;9.96;94.76;100922.21;1474848;88;20290;-80
2022/10/11 02:15:33;;;;;;;;;;;;;;;9.98;95.61;100926.03;1481016;88;20380;-81
2022/10/11 02:18:01;;;;;;;;;;;;;;;9.99;95.96;100919.79;1464031;88;20327;-80
2022/10/11 02:20:31;;;;;;;;;;;;;;;9.97;96.04;100921.23;1468532;88;20891;-80
2022/10/11 02:23:10;;;;;;;;;;;;;;;9.98;96.42;100920.73;1478746;88;20290;-80
2022/10/11 02:25:38;;;;;;;;;;;;;;;10.00;95.64;100917.00;1474469;88;20978;-80
2022/10/11 02:28:08;;;;;;;;;;;;;;;10.09;95.54;100921.98;1482775;88;20326;-80
2022/10/11 02:30:36;;;;;;;;;;;;;;;10.15;95.35;100919.63;1465066;88;20304;-79
2022/10/11 02:33:06;;;;;;;;;;;;;;;10.21;95.05;100916.11;1470817;88;20276;-80
2022/10/11 02:35:36;;;;;;;;;;;;;;;10.24;96.83;100920.67;1461570;88;20843;-80
2022/10/11 02:38:20;;;;;;;;;;;;;;;10.17;96.30;100925.64;1479960;88;20312;-80
2022/10/11 02:40:50;;;;;;;;;;;;;;;10.16;95.56;100921.33;1466407;88;20686;-79
2022/10/11 02:43:22;;;;;;;;;;;;;;;10.19;95.15;100919.39;1477611;88;20346;-81
2022/10/11 02:45:52;;;;;;;;;;;;;;;10.13;95.97;100924.73;1455489;88;20348;-80
2022/10/11 02:48:19;;;;;;;;;;;;;;;10.02;96.47;100920.36;1455461;88;20284;-80
2022/10/11 02:50:46;;;;;;;;;;;;;;;9.94;95.47;100921.00;1433065;91;20815;-80
2022/10/11 02:53:13;;;;;;;;;;;;;;;9.95;95.16;100920.52;1458071;88;20292;-79
2022/10/11 02:55:40;;;;;;;;;;;;;;;9.97;95.78;100919.08;1432769;90;20867;-80
2022/10/11 02:58:06;;;;;;;;;;;;;;;9.98;95.46;100916.28;1463660;89;20290;-80
2022/10/11 03:00:33;;;;;;;;;;;;;;;10.01;95.43;100914.73;1468311;89;20366;-80
2022/10/11 03:03:00;;;;;;;;;;;;;;;10.06;95.01;100918.28;1439022;90;20243;-80
2022/10/11 03:05:27;;;;;;;;;;;;;;;10.10;95.03;100922.35;1422267;91;20341;-80
2022/10/11 03:07:54;;;;;;;;;;;;;;;10.16;95.12;100929.75;1482884;88;20298;-80
2022/10/11 03:10:20;;;;;;;;;;;;;;;10.22;95.12;100933.19;1466705;88;20732;-78
2022/10/11 03:12:47;;;;;;;;;;;;;;;10.23;96.30;100930.88;1465543;88;20255;-80
2022/10/11 03:15:14;;;;;;;;;;;;;;;10.16;96.46;100933.72;1469300;88;20450;-81
2022/10/11 03:17:41;;;;;;;;;;;;;;;10.15;95.99;100934.67;1474207;88;20365;-81
2022/10/11 03:20:08;;;;;;;;;;;;;;;10.16;95.37;100935.05;1459842;88;20386;-79
2022/10/11 03:22:35;;;;;;;;;;;;;;;10.22;95.21;100931.03;1467862;88;20679;-80
2022/10/11 03:25:03;;;;;;;;;;;;;;;10.26;95.68;100927.97;1463590;88;20292;-80
2022/10/11 03:27:31;;;;;;;;;;;;;;;10.30;95.40;100926.78;1458086;88;20308;-81
2022/10/11 03:29:57;;;;;;;;;;;;;;;10.36;95.08;100927.56;1433934;91;20272;-80
2022/10/11 03:32:24;;;;;;;;;;;;;;;10.41;94.85;100926.31;1468394;88;20429;-78
2022/10/11 03:34:51;;;;;;;;;;;;;;;10.42;95.70;100924.03;1460674;88;20828;-78
2022/10/11 03:37:18;;;;;;;;;;;;;;;10.38;95.44;100921.63;1455829;89;20491;-78
2022/10/11 03:39:45;;;;;;;;;;;;;;;10.36;94.94;100920.95;1448728;90;20346;-78
2022/10/11 03:42:13;;;;;;;;;;;;;;;10.36;95.72;100924.09;1444128;89;20339;-78
2022/10/11 03:44:40;;;;;;;;;;;;;;;10.30;96.39;100926.78;1442910;90;20405;-77
2022/10/11 03:47:08;;;;;;;;;;;;;;;10.14;97.24;100926.39;1478536;88;20224;-78
2022/10/11 03:49:35;;;;;;;;;;;;;;;10.06;97.00;100924.89;1479948;88;20232;-78
2022/10/11 03:52:01;;;;;;;;;;;;;;;10.07;95.85;100924.77;1470571;88;20282;-78
2022/10/11 03:54:29;;;;;;;;;;;;;;;10.06;96.81;100923.56;1482522;88;20402;-79
2022/10/11 03:56:57;;;;;;;;;;;;;;;10.04;95.75;100923.72;1470585;88;20855;-78
2022/10/11 03:59:24;;;;;;;;;;;;;;;10.00;95.93;100923.61;1476059;88;20297;-78
2022/10/11 04:01:51;;;;;;;;;;;;;;;9.99;95.11;100921.11;1486235;88;20324;-78
2022/10/11 04:04:18;;;;;;;;;;;;;;;10.02;95.51;100922.17;1479896;88;20737;-78
2022/10/11 04:06:44;;;;;;;;;;;;;;;9.99;96.30;100928.55;1479785;88;20327;-79
2022/10/11 04:09:11;;;;;;;;;;;;;;;10.03;95.68;100927.31;1476646;88;20260;-78
2022/10/11 04:11:38;;;;;;;;;;;;;;;10.08;95.77;100927.76;1472500;88;20840;-78
2022/10/11 04:14:05;;;;;;;;;;;;;;;10.13;96.29;100927.38;1459849;88;20438;-78
2022/10/11 04:16:32;;;;;;;;;;;;;;;10.14;96.30;100921.11;1480516;88;20343;-78
2022/10/11 04:18:58;;;;;;;;;;;;;;;10.11;96.83;100922.69;1461140;88;20834;-78
2022/10/11 04:21:25;;;;;;;;;;;;;;;10.08;96.24;100926.92;1477684;88;20367;-77
2022/10/11 04:23:53;;;;;;;;;;;;;;;10.03;97.28;100924.66;1459985;88;20319;-77
2022/10/11 04:26:20;;;;;;;;;;;;;;;10.06;96.62;100929.69;1446702;89;20867;-79
2022/10/11 04:28:46;;;;;;;;;;;;;;;10.08;96.95;100922.47;1475911;88;20283;-78
2022/10/11 04:31:13;;;;;;;;;;;;;;;10.10;98.00;100930.28;1479032;88;20313;-79
2022/10/11 04:33:40;;;;;;;;;;;;;;;10.10;98.19;100931.61;1467158;88;20314;-79
2022/10/11 04:36:07;;;;;;;;;;;;;;;10.03;99.03;100944.98;1474693;88;20796;-80
2022/10/11 04:38:34;;;;;;;;;;;;;;;9.97;98.48;100940.23;1471618;88;20305;-80
2022/10/11 04:41:09;;;;;;;;;;;;;;;9.98;98.28;100942.73;1473633;88;20826;-80
2022/10/11 04:43:36;;;;;;;;;;;;;;;9.97;99.57;100946.35;1473718;88;20336;-80
2022/10/11 04:46:04;;;;;;;;;;;;;;;9.96;98.58;100942.53;1487620;88;20790;-80
2022/10/11 04:48:31;;;;;;;;;;;;;;;10.00;98.23;100946.58;1474375;88;20424;-79
2022/10/11 04:50:58;;;;;;;;;;;;;;;10.02;97.82;100942.00;1456819;88;20293;-79
2022/10/11 04:53:25;;;;;;;;;;;;;;;10.06;97.96;100950.84;1468690;88;20238;-80
2022/10/11 04:56:09;;;;;;;;;;;;;;;10.09;98.70;100956.36;1480618;88;20276;-80
2022/10/11 04:58:39;;;;;;;;;;;;;;;10.05;99.50;100957.11;1478582;88;20298;-79
2022/10/11 05:01:07;;;;;;;;;;;;;;;10.06;99.19;100960.59;1482522;88;20217;-80
2022/10/11 05:03:34;;;;;;;;;;;;;;;10.02;100.00;100962.67;1473321;88;20239;-80
2022/10/11 05:06:01;;;;;;;;;;;;;;;10.03;99.60;100955.08;1462209;88;20879;-80
2022/10/11 05:08:28;;;;;;;;;;;;;;;10.06;100.00;100955.30;1464736;88;20275;-80
2022/10/11 05:11:00;;;;;;;;;;;;;;;10.10;99.56;100955.41;1474608;88;20291;-80
2022/10/11 05:13:28;;;;;;;;;;;;;;;10.16;99.69;100958.84;1458189;89;20359;-80
2022/10/11 05:15:55;;;;;;;;;;;;;;;10.19;99.60;100965.20;1479030;88;20305;-78
2022/10/11 05:18:22;;;;;;;;;;;;;;;10.25;99.25;100964.66;1474145;88;20267;-79
2022/10/11 05:20:59;;;;;;;;;;;;;;;10.29;98.93;100963.45;1467309;88;20452;-79
2022/10/11 05:23:28;;;;;;;;;;;;;;;10.35;98.68;100960.75;1450664;89;20347;-79
2022/10/11 05:25:54;;;;;;;;;;;;;;;10.41;98.86;100962.03;1448768;88;20800;-78
2022/10/11 05:28:21;;;;;;;;;;;;;;;10.46;98.30;100968.60;1446533;90;20258;-79
2022/10/11 05:30:48;;;;;;;;;;;;;;;10.54;98.10;100963.48;1485715;88;20342;-80
2022/10/11 05:33:15;;;;;;;;;;;;;;;10.63;98.03;100967.13;1470220;87;20400;-79
2022/10/11 05:35:42;;;;;;;;;;;;;;;10.66;98.28;100962.89;1466217;89;20290;-78
2022/10/11 05:38:09;;;;;;;;;;;;;;;10.69;98.41;100963.94;1464294;89;20289;-79
2022/10/11 05:40:37;;;;;;;;;;;;;;;10.71;98.22;100967.30;1474595;88;20239;-80
2022/10/11 05:43:04;;;;;;;;;;;;;;;10.78;97.88;100972.39;1459786;89;20319;-79
2022/10/11 05:45:41;;;;;;;;;;;;;;;10.84;98.20;100970.52;1460158;89;20304;-78
2022/10/11 05:48:08;;;;;;;;;;;;;;;10.87;97.76;100979.17;1470487;88;20371;-81
2022/10/11 05:50:36;;;;;;;;;;;;;;;10.88;98.12;100984.34;1458546;89;20281;-84
2022/10/11 05:53:04;;;;;;;;;;;;;;;10.92;97.34;100983.58;1463411;88;20766;-82
2022/10/11 05:55:42;;;;;;;;;;;;;;;10.99;97.43;100986.02;1458502;89;20230;-83
2022/10/11 05:58:11;;;;;;;;;;;;;;;11.07;97.10;100989.66;1467244;88;20349;-83
2022/10/11 06:00:38;;;;;;;;;;;;;;;11.15;96.72;100999.58;1464900;88;20303;-82
2022/10/11 06:03:07;;;;;;;;;;;;;;;11.19;96.32;101002.32;1459614;89;20775;-83
2022/10/11 06:05:35;;;;;;;;;;;;;;;11.22;96.03;101002.05;1460187;89;20713;-82
2022/10/11 06:08:03;;;;;;;;;;;;;;;11.26;95.90;101004.75;1461091;89;20943;-83
2022/10/11 06:10:30;;;;;;;;;;;;;;;11.27;95.57;100997.64;1463835;89;21382;-83
2022/10/11 06:12:57;;;;;;;;;;;;;;;11.30;95.48;101007.47;1458689;89;20583;-83
2022/10/11 06:15:23;;;;;;;;;;;;;;;11.38;95.34;101007.28;1452313;89;20269;-83
2022/10/11 06:17:51;;;;;;;;;;;;;;;11.48;95.48;101008.97;1468411;89;20289;-83
2022/10/11 06:20:18;;;;;;;;;;;;;;;11.58;95.56;101014.25;1440018;89;20319;-84
2022/10/11 06:22:45;;;;;;;;;;;;;;;11.62;94.82;101010.34;1443425;89;20243;-82
2022/10/11 06:25:12;;;;;;;;;;;;;;;11.67;94.60;101012.58;1479619;88;20536;-82
2022/10/11 06:27:39;;;;;;;;;;;;;;;11.75;94.79;101018.84;1449225;88;20290;-83
2022/10/11 06:30:09;;;;;;;;;;;;;;;11.85;94.71;101018.00;1445070;90;21540;-83
2022/10/11 06:32:36;;;;;;;;;;;;;;;11.91;94.54;101013.48;1453363;90;20903;-84
2022/10/11 06:35:04;;;;;;;;;;;;;;;11.98;94.17;101018.58;1448064;90;20297;-83
2022/10/11 06:37:31;;;;;;;;;;;;;;;12.06;93.77;101017.88;1450441;89;20341;-84
2022/10/11 06:39:58;;;;;;;;;;;;;;;12.14;93.72;101014.00;1468280;88;20206;-83
2022/10/11 06:42:25;;;;;;;;;;;;;;;12.20;93.19;101017.43;1475873;88;20349;-84
2022/10/11 06:44:51;;;;;;;;;;;;;;;12.29;93.14;101011.75;1479822;88;20239;-84
2022/10/11 06:47:18;;;;;;;;;;;;;;;12.36;92.67;101016.81;1471674;88;20847;-84
2022/10/11 06:49:45;;;;;;;;;;;;;;;12.45;92.49;101012.45;1481624;88;20311;-84
2022/10/11 06:52:12;;;;;;;;;;;;;;;12.54;92.54;101013.73;1482715;88;20525;-83
2022/10/11 06:54:39;;;;;;;;;;;;;;;12.60;91.64;101017.15;1486332;88;20297;-83
2022/10/11 06:57:06;;;;;;;;;;;;;;;12.67;91.52;101016.56;1485557;88;20885;-84
2022/10/11 06:59:33;;;;;;;;;;;;;;;12.73;91.12;101016.80;1479031;88;20363;-83
2022/10/11 07:01:59;;;;;;;;;;;;;;;12.75;90.49;101020.66;1478709;88;20253;-84
2022/10/11 07:04:26;;;;;;;;;;;;;;;12.71;90.61;101028.05;1479390;88;20833;-82
2022/10/11 07:06:53;;;;;;;;;;;;;;;12.70;90.31;101029.05;1484067;88;20324;-84
2022/10/11 07:09:20;;;;;;;;;;;;;;;12.73;90.89;101035.39;1480835;88;20297;-83
2022/10/11 07:11:47;;;;;;;;;;;;;;;12.70;91.07;101036.18;1477110;88;20342;-83
2022/10/11 07:14:14;;;;;;;;;;;;;;;12.69;90.61;101039.80;1465383;88;20251;-83
2022/10/11 07:16:44;;;;;;;;;;;;;;;12.71;90.48;101037.84;1459581;88;20354;-83
2022/10/11 07:19:11;;;;;;;;;;;;;;;12.75;90.88;101036.59;1460105;89;20263;-84
2022/10/11 07:21:38;;;;;;;;;;;;;;;12.76;90.87;101042.23;1462853;88;20736;-83
2022/10/11 07:24:06;;;;;;;;;;;;;;;12.75;90.68;101036.09;1470776;88;20335;-83
2022/10/11 07:26:33;;;;;;;;;;;;;;;12.76;90.68;101036.92;1474470;88;20301;-83
2022/10/11 07:28:59;;;;;;;;;;;;;;;12.75;90.73;101039.24;1478607;88;20805;-85
2022/10/11 07:31:32;;;;;;;;;;;;;;;12.76;91.12;101039.58;1474874;88;20334;-83
2022/10/11 07:33:59;;;;;;;;;;;;;;;12.79;91.35;101036.63;1484122;88;20395;-83
2022/10/11 07:36:26;;;;;;;;;;;;;;;12.78;91.39;101038.45;1482551;88;20290;-83
2022/10/11 07:38:53;;;;;;;;;;;;;;;12.83;90.72;101038.85;1479040;88;20297;-84
2022/10/11 07:41:20;;;;;;;;;;;;;;;12.89;91.57;101036.09;1475374;88;20380;-85
2022/10/11 07:43:48;;;;;;;;;;;;;;;12.94;91.21;101044.44;1475709;88;20292;-84
2022/10/11 07:46:17;;;;;;;;;;;;;;;12.92;90.67;101050.87;1467025;88;20388;-81
2022/10/11 07:48:43;;;;;;;;;;;;;;;12.97;90.82;101050.78;1468872;88;20351;-83
2022/10/11 07:51:16;;;;;;;;;;;;;;;13.03;90.97;101044.04;1462298;88;20531;-83
2022/10/11 07:53:48;;;;;;;;;;;;;;;13.05;90.80;101040.25;1462086;88;20289;-83
2022/10/11 07:56:18;;;;;;;;;;;;;;;13.08;90.59;101039.95;1391844;89;20822;-81
2022/10/11 07:58:50;;;;;;;;;;;;;;;13.14;90.57;101036.36;1419178;88;20304;-86
2022/10/11 08:01:18;;;;;;;;;;;;;;;13.24;90.71;101041.97;1471409;88;20870;-84
2022/10/11 08:03:46;;;;;;;;;;;;;;;13.37;90.49;101046.94;1467974;88;20300;-83
2022/10/11 08:06:15;;;;;;;;;;;;;;;13.48;90.58;101052.03;1474967;88;20326;-82
2022/10/11 08:08:42;;;;;;;;;;;;;;;13.63;90.29;101047.52;1471198;88;20506;-84
2022/10/11 08:11:09;;;;;;;;;;;;;;;13.73;89.78;101049.63;1473810;88;20372;-86
2022/10/11 08:13:36;;;;;;;;;;;;;;;13.80;89.05;101048.50;1466970;88;20293;-83
2022/10/11 08:16:08;;;;;;;;;;;;;;;13.87;88.17;101050.91;1460520;88;20380;-83
2022/10/11 08:18:35;;;;;;;;;;;;;;;13.97;88.61;101054.30;1466619;88;20964;-84
2022/10/11 08:21:05;;;;;;;;;;;;;;;14.04;87.68;101046.05;1475016;88;20453;-86
2022/10/11 08:23:32;;;;;;;;;;;;;;;14.10;87.48;101046.76;1473448;87;20462;-84
2022/10/11 08:25:58;;;;;;;;;;;;;;;14.16;87.33;101051.45;1467402;88;21472;-85
2022/10/11 08:28:27;;;;;;;;;;;;;;;14.13;85.93;101053.60;1467169;87;20367;-86
2022/10/11 08:30:54;;;;;;;;;;;;;;;14.06;85.64;101053.36;1465860;88;20463;-85
2022/10/11 08:33:22;;;;;;;;;;;;;;;14.02;85.61;101053.84;1450347;88;20297;-85
2022/10/11 08:35:51;;;;;;;;;;;;;;;13.99;85.88;101059.81;1395532;88;20261;-86
2022/10/11 08:38:18;;;;;;;;;;;;;;;13.98;85.68;101070.13;1413536;87;20344;-86
2022/10/11 08:40:52;;;;;;;;;;;;;;;14.02;86.24;101065.32;1478058;88;20378;-88
2022/10/11 08:43:45;;;;;;;;;;;;;;;14.10;86.55;101064.56;1476875;88;20327;-89
2022/10/11 08:46:13;;;;;;;;;;;;;;;14.15;85.80;101059.58;1471483;88;20412;-89
2022/10/11 08:48:43;;;;;;;;;;;;;;;14.14;85.76;101059.25;1465753;88;20547;-86
2022/10/11 08:51:26;;;;;;;;;;;;;;;14.22;86.06;101057.98;1476280;88;20312;-89
2022/10/11 08:54:03;;;;;;;;;;;;;;;14.22;85.86;101053.48;1469617;88;20535;-86
2022/10/11 08:56:31;;;;;;;;;;;;;;;14.28;85.80;101054.69;1472387;88;20297;-87
2022/10/11 08:59:02;;;;;;;;;;;;;;;14.35;85.78;101052.23;1401227;88;20715;-87
2022/10/11 09:01:29;;;;;;;;;;;;;;;14.40;85.58;101049.94;1512529;88;20227;-88
2022/10/11 09:03:58;;;;;;;;;;;;;;;14.42;85.11;101052.78;1400285;88;20330;-87
2022/10/11 09:06:32;;;;;;;;;;;;;;;14.45;85.07;101048.47;1413888;88;20264;-88
2022/10/11 09:09:19;;;;;;;;;;;;;;;14.51;84.85;101044.34;1479238;88;20243;-84
2022/10/11 09:12:13;;;;;;;;;;;;;;;14.62;85.02;101049.94;1481593;88;20386;-85
2022/10/11 09:15:02;;;;;;;;;;;;;;;14.69;84.56;101048.80;1480599;88;20346;-85
2022/10/11 09:17:51;;;;;;;;;;;;;;;14.66;83.90;101058.77;1477118;88;20772;-86
2022/10/11 09:20:28;;;;;;;;;;;;;;;14.69;84.21;101057.62;1476984;88;20309;-86
2022/10/11 09:23:13;;;;;;;;;;;;;;;14.79;84.63;101055.68;1476278;88;20287;-86
2022/10/11 09:25:50;;;;;;;;;;;;;;;14.93;84.30;101061.38;1469352;88;20926;-86
2022/10/11 09:28:41;;;;;;;;;;;;;;;15.08;83.97;101063.28;1474419;88;20288;-86
2022/10/11 09:31:09;;;;;;;;;;;;;;;15.15;82.23;101062.64;1481014;88;20272;-86
2022/10/11 09:33:42;;;;;;;;;;;;;;;15.23;81.99;101063.49;1475618;88;20287;-85
2022/10/11 09:36:22;;;;;;;;;;;;;;;15.21;80.52;101061.98;1475397;88;20250;-83
2022/10/11 09:39:04;;;;;;;;;;;;;;;15.23;81.27;101056.83;1446655;88;20286;-84
2022/10/11 09:41:44;;;;;;;;;;;;;;;15.24;80.96;101060.32;1475727;88;20272;-85
2022/10/11 09:44:26;;;;;;;;;;;;;;;15.17;81.42;101060.15;1472471;88;20316;-86
2022/10/11 09:46:54;;;;;;;;;;;;;;;15.22;81.78;101065.84;1479680;88;20316;-86
2022/10/11 09:49:40;;;;;;;;;;;;;;;15.29;81.59;101064.17;1483889;88;20281;-86
2022/10/11 09:52:10;;;;;;;;;;;;;;;15.42;81.76;101066.86;1475613;88;20468;-86
2022/10/11 09:54:41;;;;;;;;;;;;;;;15.49;80.67;101062.55;1480636;88;20286;-86
2022/10/11 09:57:23;;;;;;;;;;;;;;;15.53;80.01;101066.55;1473870;88;20316;-83
2022/10/11 10:00:03;;;;;;;;;;;;;;;15.54;79.53;101065.57;1475863;88;20874;-86
2022/10/11 10:02:45;;;;;;;;;;;;;;;15.67;80.67;101064.56;1473798;88;20309;-85
2022/10/11 10:05:19;;;;;;;;;;;;;;;15.73;79.45;101061.77;1463919;88;20286;-86
2022/10/11 10:08:07;;;;;;;;;;;;;;;15.62;78.31;101059.39;1475153;88;20402;-86
2022/10/11 10:10:43;;;;;;;;;;;;;;;15.71;78.69;101057.13;1471194;88;20331;-86
2022/10/11 10:13:20;;;;;;;;;;;;;;;15.81;79.27;101055.61;1479220;88;20401;-86
2022/10/11 10:15:50;;;;;;;;;;;;;;;15.88;79.08;101054.79;1473640;88;20221;-87
2022/10/11 10:18:26;;;;;;;;;;;;;;;16.00;78.54;101055.28;1477232;88;20316;-91
2022/10/11 10:20:55;;;;;;;;;;;;;;;16.09;78.12;101046.77;1469457;88;20398;-86
2022/10/11 10:23:25;;;;;;;;;;;;;;;16.17;78.38;101042.25;1473147;88;20358;-85
2022/10/11 10:25:53;;;;;;;;;;;;;;;16.41;79.21;101041.86;1482978;88;20303;-88
2022/10/11 10:28:23;;;;;;;;;;;;;;;16.63;79.04;101046.48;1463949;88;20302;-93
2022/10/11 10:30:56;;;;;;;;;;;;;;;16.87;79.08;101042.08;1482646;88;20302;-93
2022/10/11 10:33:25;;;;;;;;;;;;;;;16.94;74.99;101045.70;1472503;88;20394;-92
2022/10/11 10:36:15;;;;;;;;;;;;;;;16.95;74.07;101036.70;1477744;88;20302;-91
2022/10/11 10:38:57;;;;;;;;;;;;;;;17.10;75.89;101034.11;1479511;88;20301;-91
2022/10/11 10:41:24;;;;;;;;;;;;;;;17.25;75.06;101035.02;1472711;88;20300;-92
2022/10/11 10:43:54;;;;;;;;;;;;;;;17.28;73.45;101037.84;1465001;88;20350;-92
2022/10/11 10:46:48;;;;;;;;;;;;;;;17.33;73.49;101042.17;1471649;88;20465;-93
2022/10/11 10:49:25;;;;;;;;;;;;;;;17.50;74.67;101043.72;1478663;88;20383;-90
2022/10/11 10:52:12;;;;;;;;;;;;;;;17.62;74.46;101039.30;1486753;88;20540;-92
2022/10/11 10:55:04;;;;;;;;;;;;;;;17.64;71.64;101043.47;1477952;88;20896;-94
2022/10/11 10:57:47;;;;;;;;;;;;;;;17.75;72.41;101046.20;1480004;88;20302;-93
2022/10/11 11:00:18;;;;;;;;;;;;;;;17.64;70.52;101042.64;1482228;88;20293;-95
2022/10/11 11:02:49;;;;;;;;;;;;;;;17.57;70.70;101043.84;1478279;88;21229;-91
2022/10/11 11:05:33;;;;;;;;;;;;;;;17.49;70.71;101039.88;1482523;88;20294;-95
2022/10/11 11:08:10;;;;;;;;;;;;;;;17.55;71.42;101040.02;1475080;88;20412;-90
2022/10/11 11:11:08;;;;;;;;;;;;;;;17.51;70.37;101038.69;1474890;88;20309;-91
2022/10/11 11:13:42;;;;;;;;;;;;;;;17.61;71.48;101039.81;1478155;88;20306;-94
2022/10/11 11:16:21;;;;;;;;;;;;;;;17.75;71.98;101040.37;1488334;88;20806;-96
2022/10/11 11:18:54;;;;;;;;;;;;;;;17.96;72.27;101036.20;1479853;88;20326;-95
2022/10/11 11:21:43;;;;;;;;;;;;;;;18.16;71.57;101041.88;1481559;88;20409;-84
2022/10/11 11:24:20;;;;;;;;;;;;;;;18.09;69.17;101039.59;1480506;88;20316;-93
2022/10/11 11:27:25;;;;;;;;;;;;;;;18.13;69.24;101043.59;1470670;88;20278;-93
2022/10/11 11:29:59;;;;;;;;;;;;;;;18.24;70.02;101039.09;1471479;88;20350;-96
2022/10/11 11:32:50;;;;;;;;;;;;;;;18.20;69.01;101041.83;1464528;88;20452;-94
2022/10/11 11:35:38;;;;;;;;;;;;;;;18.19;69.68;101040.17;1473684;88;20852;-96
2022/10/11 11:38:18;;;;;;;;;;;;;;;18.09;68.84;101040.93;1475090;88;20279;-96
2022/10/11 11:40:53;;;;;;;;;;;;;;;17.97;69.03;101037.34;1456131;88;20273;-95
2022/10/11 11:43:36;;;;;;;;;;;;;;;17.91;69.28;101030.55;1462256;88;20235;-96
2022/10/11 11:46:09;;;;;;;;;;;;;;;17.94;70.16;101033.70;1463604;89;20301;-95
2022/10/11 11:48:37;;;;;;;;;;;;;;;17.91;70.53;101035.91;1466871;88;20308;-94
2022/10/11 11:51:13;;;;;;;;;;;;;;;17.96;70.63;101026.32;1477895;88;20428;-96
2022/10/11 11:53:57;;;;;;;;;;;;;;;18.03;70.96;101027.76;1460449;88;20309;-96
2022/10/11 11:56:28;;;;;;;;;;;;;;;17.99;69.78;101027.30;1478732;88;20324;-93
2022/10/11 11:59:11;;;;;;;;;;;;;;;17.95;69.91;101026.01;1476414;88;20250;-96
2022/10/11 12:01:51;;;;;;;;;;;;;;;18.05;70.79;101020.38;1466956;88;20377;-94
2022/10/11 12:04:28;;;;;;;;;;;;;;;18.21;70.68;101015.36;1483133;88;20397;-96
2022/10/11 12:07:07;;;;;;;;;;;;;;;18.11;68.87;101014.80;1484970;88;20275;-96
2022/10/11 12:09:37;;;;;;;;;;;;;;;18.06;69.20;101018.53;1473636;88;20328;-88
2022/10/11 12:12:06;;;;;;;;;;;;;;;18.12;69.83;101013.78;1482456;86;20268;-88
2022/10/11 12:14:37;;;;;;;;;;;;;;;18.22;70.30;101011.67;1490495;87;20302;-96
2022/10/11 12:17:25;;;;;;;;;;;;;;;18.35;69.17;101009.17;1483857;86;20248;-96
2022/10/11 12:20:16;;;;;;;;;;;;;;;18.40;68.49;101010.80;1489374;88;20238;-87
2022/10/11 12:23:02;;;;;;;;;;;;;;;18.38;67.74;101007.46;1485702;86;20299;-85
2022/10/11 12:25:39;;;;;;;;;;;;;;;18.48;68.39;101004.52;1484368;86;20268;-85
2022/10/11 12:28:27;;;;;;;;;;;;;;;18.58;69.24;101004.23;1469810;88;20261;-96
2022/10/11 12:30:56;;;;;;;;;;;;;;;18.69;69.10;101010.47;1441712;88;20819;-96
2022/10/11 12:33:26;;;;;;;;;;;;;;;18.81;69.52;101002.28;1489096;88;20239;-95
2022/10/11 12:35:57;;;;;;;;;;;;;;;18.90;68.17;101005.20;1468422;88;20260;-96
2022/10/11 12:38:27;;;;;;;;;;;;;;;18.88;67.20;101003.73;1478819;88;20282;-94
2022/10/11 12:41:00;;;;;;;;;;;;;;;18.84;67.14;101009.95;1485251;88;20254;-86
2022/10/11 12:43:30;;;;;;;;;;;;;;;18.83;67.25;100998.92;1479346;88;20233;-86
2022/10/11 12:46:18;;;;;;;;;;;;;;;18.87;67.85;101008.75;1484941;86;20239;-86
2022/10/11 12:48:48;;;;;;;;;;;;;;;18.77;66.60;100999.67;1487689;88;20300;-85
2022/10/11 12:51:36;;;;;;;;;;;;;;;18.70;67.03;100997.37;1484643;86;20283;-86
2022/10/11 12:54:16;;;;;;;;;;;;;;;18.54;67.33;101001.09;1483784;86;20327;-86
2022/10/11 12:57:10;;;;;;;;;;;;;;;18.53;68.61;101002.13;1485369;88;20290;-86
2022/10/11 12:59:42;;;;;;;;;;;;;;;18.55;68.37;101000.06;1488073;86;20299;-86
2022/10/11 13:02:30;;;;;;;;;;;;;;;18.49;67.71;101000.81;1488358;86;20275;-96
2022/10/11 13:05:16;;;;;;;;;;;;;;;18.55;68.27;100996.05;1478697;87;20246;-86